Time;durP1;ratioP1;P1;durP2;ratioP2;P2;SDS_P1;SDS_P2;PMS_P1;PMS_P2;Temp;Humidity;BMP_temperature;BMP_pressure;BME280_temperature;BME280_humidity;BME280_pressure;Samples;Min_cycle;Max_cycle;Signal;HPM_P1;HPM_P2
2022/04/22 04:53:50;;;;;;;14.77;9.20;;;;;;;11.72;46.83;99131.97;4458435;26;34121;-83
2022/04/22 04:56:17;;;;;;;17.17;9.65;;;;;;;11.87;47.22;99134.13;4440759;32;34164;-83
2022/04/22 04:58:45;;;;;;;14.05;8.90;;;;;;;11.87;47.56;99122.03;4446072;32;33656;-83
2022/04/22 05:01:13;;;;;;;19.12;9.68;;;;;;;12.06;47.07;99107.88;4445790;32;33485;-84
2022/04/22 05:03:40;;;;;;;15.10;9.20;;;;;;;12.14;47.40;99116.75;4446784;32;33921;-84
2022/04/22 05:06:08;;;;;;;14.05;9.85;;;;;;;12.16;47.40;99119.41;4438859;32;34250;-84
2022/04/22 05:08:36;;;;;;;15.95;9.63;;;;;;;12.14;47.36;99124.53;4452089;32;33631;-83
2022/04/22 05:11:04;;;;;;;14.68;9.32;;;;;;;11.93;47.67;99136.94;4461598;32;34023;-83
2022/04/22 05:13:31;;;;;;;18.35;10.70;;;;;;;12.01;46.97;99135.41;4464840;32;34528;-83
2022/04/22 05:16:00;;;;;;;17.50;10.40;;;;;;;12.07;46.70;99129.53;4450336;32;34822;-83
2022/04/22 05:18:28;;;;;;;17.62;9.52;;;;;;;12.22;46.70;99129.09;4463637;32;33450;-84
2022/04/22 05:20:55;;;;;;;19.35;9.68;;;;;;;12.41;45.94;99133.06;4458431;32;34377;-84
2022/04/22 05:23:23;;;;;;;17.75;10.02;;;;;;;12.21;45.85;99143.78;4452152;32;33925;-84
2022/04/22 05:25:51;;;;;;;14.75;10.43;;;;;;;12.17;45.45;99141.94;4452289;32;34356;-83
2022/04/22 05:28:18;;;;;;;19.08;9.40;;;;;;;12.05;45.87;99144.19;4453161;32;34336;-84
2022/04/22 05:33:34;;;;;;;16.20;10.07;;;;;;;11.78;45.98;99127.84;4449391;32;33536;-85
2022/04/22 05:36:01;;;;;;;18.27;10.43;;;;;;;11.88;46.05;99131.59;4450066;32;34630;-85
2022/04/22 05:38:29;;;;;;;15.25;9.23;;;;;;;11.75;46.17;99143.31;4459645;32;31588;-86
2022/04/22 05:40:57;;;;;;;14.63;9.50;;;;;;;11.94;45.86;99146.50;4458670;32;34518;-85
2022/04/22 05:43:24;;;;;;;13.80;9.63;;;;;;;11.99;45.47;99132.81;4457544;32;33607;-86
2022/04/22 05:45:52;;;;;;;15.95;9.18;;;;;;;12.07;45.47;99129.53;4438790;32;33516;-86
2022/04/22 05:48:19;;;;;;;15.52;9.20;;;;;;;12.10;45.17;99130.50;4438501;32;31775;-86
2022/04/22 05:50:47;;;;;;;15.77;9.82;;;;;;;12.36;44.56;99123.44;4438431;32;32951;-86
2022/04/22 05:53:15;;;;;;;16.30;10.38;;;;;;;11.75;45.96;99119.09;4437476;32;33922;-86
2022/04/22 05:55:43;;;;;;;15.85;9.70;;;;;;;11.93;45.60;99116.16;4453514;32;34479;-85
2022/04/22 05:58:10;;;;;;;16.95;10.15;;;;;;;11.99;45.05;99117.22;4453551;32;33394;-85
2022/04/22 06:00:38;;;;;;;17.10;10.43;;;;;;;11.68;45.55;99114.53;4444693;32;33660;-86
2022/04/22 06:03:07;;;;;;;16.05;9.57;;;;;;;12.15;44.90;99107.28;4451364;32;33830;-85
2022/04/22 06:05:34;;;;;;;15.05;10.18;;;;;;;12.23;44.34;99118.75;4453202;32;34230;-85
2022/04/22 06:10:54;;;;;;;15.85;9.88;;;;;;;11.95;44.96;99111.91;4442492;32;34251;-86
2022/04/22 06:13:21;;;;;;;15.77;10.93;;;;;;;11.92;44.85;99112.69;4427256;32;34038;-86
2022/04/22 06:15:49;;;;;;;16.40;10.38;;;;;;;12.03;44.68;99101.72;4440115;32;34130;-87
2022/04/22 06:18:17;;;;;;;14.75;9.38;;;;;;;12.02;44.72;99100.00;4440435;32;34188;-87
2022/04/22 06:20:44;;;;;;;17.42;10.32;;;;;;;12.10;44.67;99098.47;4466497;32;33605;-88
2022/04/22 06:23:12;;;;;;;14.95;9.48;;;;;;;12.20;44.70;99100.47;4459901;32;34303;-88
2022/04/22 06:25:45;;;;;;;16.12;10.27;;;;;;;12.51;43.80;99096.94;4443929;32;33929;-86
2022/04/22 06:28:13;;;;;;;16.77;10.63;;;;;;;12.06;44.68;99096.63;4451182;32;33066;-85
2022/04/22 06:30:41;;;;;;;15.20;9.52;;;;;;;12.04;44.97;99087.94;4455181;32;33873;-87
2022/04/22 06:33:09;;;;;;;15.98;10.13;;;;;;;12.03;44.57;99087.03;4460276;32;34002;-86
2022/04/22 06:35:37;;;;;;;15.40;10.13;;;;;;;12.05;44.74;99094.84;4446289;32;34080;-87
2022/04/22 06:38:05;;;;;;;26.25;14.07;;;;;;;12.13;44.90;99090.75;4440499;32;33648;-86
2022/04/22 06:46:06;;;;;;;20.48;10.35;;;;;;;12.13;44.85;99082.97;4451617;32;34222;-87
2022/04/22 06:48:34;;;;;;;18.12;10.07;;;;;;;12.15;44.46;99086.50;4461695;32;34468;-85
2022/04/22 06:51:11;;;;;;;14.00;10.10;;;;;;;12.32;43.98;99084.34;4465068;32;34215;-85
2022/04/22 06:53:40;;;;;;;14.43;9.10;;;;;;;12.63;43.07;99080.78;4459114;32;34252;-85
2022/04/22 06:56:08;;;;;;;15.48;9.73;;;;;;;12.58;43.28;99087.63;4447385;32;34313;-86
2022/04/22 06:58:37;;;;;;;16.70;9.57;;;;;;;12.34;44.16;99082.66;4446208;32;33519;-85
2022/04/22 07:01:07;;;;;;;20.25;10.43;;;;;;;12.23;44.30;99085.00;4447046;32;34102;-85
2022/04/22 07:03:52;;;;;;;18.25;9.88;;;;;;;12.64;43.38;99084.28;4442685;32;33636;-85
2022/04/22 07:06:20;;;;;;;19.90;9.82;;;;;;;12.73;43.21;99082.81;4467259;32;33581;-86
2022/04/22 07:08:49;;;;;;;15.15;9.55;;;;;;;12.69;43.39;99077.47;4442020;32;34450;-86
2022/04/22 07:11:24;;;;;;;15.50;9.73;;;;;;;12.71;43.27;99094.87;4464618;32;33911;-87
2022/04/22 07:13:54;;;;;;;16.15;9.85;;;;;;;12.93;43.13;99085.00;4454618;32;34381;-87
2022/04/22 07:16:21;;;;;;;15.75;10.00;;;;;;;12.65;43.46;99094.72;4461445;32;34148;-85
2022/04/22 07:18:49;;;;;;;16.87;11.07;;;;;;;12.82;43.15;99091.66;4453119;32;33729;-86
2022/04/22 07:21:17;;;;;;;16.87;11.05;;;;;;;12.70;43.44;99085.31;4443732;32;34729;-86
2022/04/22 07:23:45;;;;;;;15.82;10.30;;;;;;;12.89;43.16;99090.97;4441122;32;34574;-87
2022/04/22 07:26:15;;;;;;;15.57;9.38;;;;;;;12.79;43.71;99101.13;4438073;32;34009;-87
2022/04/22 07:28:46;;;;;;;15.38;9.98;;;;;;;12.60;45.03;99088.53;4431400;32;32213;-86
2022/04/22 07:31:18;;;;;;;20.15;10.75;;;;;;;12.71;46.15;99089.69;4440232;32;34066;-87
2022/04/22 07:33:47;;;;;;;18.65;10.48;;;;;;;12.63;47.44;99088.59;4436871;32;34974;-86
2022/04/22 07:36:14;;;;;;;18.62;11.50;;;;;;;12.69;48.11;99086.16;4456409;32;34125;-86
2022/04/22 07:38:44;;;;;;;18.75;11.05;;;;;;;12.32;48.43;99077.44;4455404;32;32956;-86
2022/04/22 07:41:16;;;;;;;15.43;11.23;;;;;;;12.72;48.93;99081.03;4461103;32;33762;-87
2022/04/22 07:46:47;;;;;;;19.85;12.00;;;;;;;12.42;50.49;99075.97;4442623;32;32128;-87
2022/04/22 07:49:16;;;;;;;22.50;11.35;;;;;;;12.84;49.89;99082.16;4442975;32;33375;-86
2022/04/22 07:51:44;;;;;;;18.25;12.10;;;;;;;12.61;50.99;99072.09;4440733;32;33728;-87
2022/04/22 07:54:12;;;;;;;18.35;11.40;;;;;;;12.45;51.79;99075.16;4439453;32;32568;-87
2022/04/22 07:56:41;;;;;;;18.87;11.80;;;;;;;12.33;52.56;99074.00;4433733;32;33168;-88
2022/04/22 07:59:11;;;;;;;19.67;12.85;;;;;;;12.21;52.80;99078.87;4428218;32;33585;-87
2022/04/22 08:01:38;;;;;;;18.30;12.43;;;;;;;12.44;52.48;99073.38;4429645;32;33643;-84
2022/04/22 08:04:09;;;;;;;19.52;11.90;;;;;;;12.36;52.76;99076.69;4441377;32;33522;-84
2022/04/22 08:06:38;;;;;;;17.30;12.10;;;;;;;12.35;53.91;99085.28;4449699;32;34159;-83
2022/04/22 08:09:05;;;;;;;19.48;11.63;;;;;;;12.71;52.56;99078.37;4435372;32;31943;-84
2022/04/22 08:11:34;;;;;;;18.92;12.32;;;;;;;12.46;52.83;99075.19;4440130;32;34649;-85
2022/04/22 08:14:01;;;;;;;18.60;12.37;;;;;;;12.75;52.71;99081.13;4431183;32;34820;-85
2022/04/22 08:16:29;;;;;;;18.62;12.40;;;;;;;12.46;53.24;99077.78;4440217;32;33431;-85
2022/04/22 08:18:57;;;;;;;20.12;12.63;;;;;;;12.36;54.55;99071.50;4439933;32;32239;-87
2022/04/22 08:21:33;;;;;;;21.50;15.13;;;;;;;12.30;54.72;99073.03;4428709;32;33321;-87
2022/04/22 08:24:02;;;;;;;24.05;16.23;;;;;;;12.34;55.33;99065.38;4441224;32;33726;-85
2022/04/22 08:26:32;;;;;;;21.48;13.70;;;;;;;12.10;56.97;99073.38;4428123;32;32506;-85
2022/04/22 08:29:00;;;;;;;21.55;14.68;;;;;;;12.39;56.09;99076.75;4450081;32;33724;-85
2022/04/22 08:31:28;;;;;;;20.95;13.55;;;;;;;12.23;57.42;99072.00;4440660;32;34544;-86
2022/04/22 08:33:57;;;;;;;21.62;14.50;;;;;;;12.24;58.29;99071.16;4423262;32;32603;-86
2022/04/22 08:36:30;;;;;;;22.25;14.87;;;;;;;12.19;58.89;99062.38;4425289;32;34048;-85
2022/04/22 08:38:58;;;;;;;19.42;14.13;;;;;;;12.27;59.46;99065.19;4450517;32;33297;-84
2022/04/22 08:41:31;;;;;;;21.60;15.20;;;;;;;12.43;58.72;99056.94;4447450;32;33591;-85
2022/04/22 08:43:59;;;;;;;23.50;15.88;;;;;;;12.07;60.58;99051.66;4435176;32;34026;-85
2022/04/22 08:52:10;;;;;;;26.12;16.40;;;;;;;11.90;63.31;99035.63;4433595;32;32405;-86
2022/04/22 08:54:48;;;;;;;23.92;16.83;;;;;;;12.27;63.02;99034.03;4452737;32;33632;-85
2022/04/22 08:57:15;;;;;;;23.42;15.88;;;;;;;12.53;62.13;99038.13;4454361;32;33860;-86
2022/04/22 08:59:43;;;;;;;36.45;24.83;;;;;;;12.52;62.85;99040.72;4443452;32;33039;-86
2022/04/22 09:02:12;;;;;;;25.42;17.27;;;;;;;12.41;63.87;99031.75;4440146;32;34466;-86
2022/04/22 09:04:40;;;;;;;32.10;21.60;;;;;;;11.92;66.52;99031.38;4440267;32;33845;-86
2022/04/22 09:07:11;;;;;;;27.58;17.77;;;;;;;12.06;67.26;99023.94;4453772;32;34815;-85
2022/04/22 09:09:40;;;;;;;25.65;15.23;;;;;;;12.30;66.95;99024.56;4459038;32;33573;-85
2022/04/22 09:12:10;;;;;;;26.25;17.10;;;;;;;12.14;68.67;99014.62;4460049;32;33959;-85
2022/04/22 09:14:46;;;;;;;26.58;17.12;;;;;;;12.51;68.55;99005.16;4429262;32;34686;-85
2022/04/22 09:17:15;;;;;;;23.50;16.98;;;;;;;12.31;69.39;99004.69;4427907;32;34237;-85
2022/04/22 09:19:44;;;;;;;24.90;15.80;;;;;;;12.06;70.44;99008.38;4441194;32;34156;-84
2022/04/22 09:22:18;;;;;;;26.23;16.60;;;;;;;11.96;70.14;98992.56;4426468;32;33696;-87
2022/04/22 09:24:54;;;;;;;27.55;16.92;;;;;;;11.86;70.44;99000.91;4437976;32;34984;-86
2022/04/22 09:27:33;;;;;;;25.75;17.33;;;;;;;11.77;71.03;98988.56;4436525;32;34587;-86
2022/04/22 09:30:07;;;;;;;24.85;17.48;;;;;;;12.00;70.02;98984.00;4443673;32;33157;-87
2022/04/22 09:32:38;;;;;;;28.90;20.73;;;;;;;12.12;69.90;98977.38;4428932;32;34029;-87
2022/04/22 09:35:09;;;;;;;30.75;20.85;;;;;;;12.28;69.42;98984.69;4452871;32;33783;-87
2022/04/22 09:43:34;;;;;;;24.42;15.60;;;;;;;12.41;69.10;98961.62;4439710;32;33189;-88
2022/04/22 09:46:30;;;;;;;26.35;17.30;;;;;;;12.08;70.37;98954.78;4428811;32;33306;-89
2022/04/22 09:48:59;;;;;;;26.30;16.08;;;;;;;12.35;69.82;98954.56;4442018;32;34621;-89
2022/04/22 09:51:30;;;;;;;24.87;16.87;;;;;;;12.07;70.91;98953.91;4422833;32;32924;-91
2022/04/22 09:54:01;;;;;;;24.80;15.77;;;;;;;12.37;70.48;98958.97;4438814;32;35007;-90
2022/04/22 09:56:31;;;;;;;25.10;16.73;;;;;;;12.69;69.24;98950.16;4441216;32;34647;-89
2022/04/22 09:58:58;;;;;;;23.40;15.85;;;;;;;12.64;68.82;98963.03;4428357;32;32874;-90
2022/04/22 10:01:26;;;;;;;25.90;16.42;;;;;;;12.67;69.32;98968.31;4429661;32;34312;-89
2022/04/22 10:04:19;;;;;;;24.15;16.80;;;;;;;12.38;70.03;98960.72;4442151;32;32370;-88
2022/04/22 10:06:47;;;;;;;22.75;16.17;;;;;;;12.43;69.41;98967.75;4428653;32;32409;-91
2022/04/22 10:09:15;;;;;;;25.73;16.80;;;;;;;12.25;69.26;98969.06;4422905;32;33290;-90
2022/04/22 10:11:48;;;;;;;24.17;15.70;;;;;;;12.23;69.05;98964.66;4425409;32;33368;-87
2022/04/22 10:14:20;;;;;;;23.87;16.30;;;;;;;12.42;68.56;98955.59;4422344;32;32642;-90
2022/04/22 10:16:48;;;;;;;24.25;16.58;;;;;;;12.21;69.11;98956.84;4441341;32;33771;-88
2022/04/22 10:19:16;;;;;;;22.55;16.65;;;;;;;12.29;69.06;98955.31;4441248;32;32565;-89
2022/04/22 10:21:46;;;;;;;26.30;15.32;;;;;;;12.69;68.70;98955.34;4424410;32;32582;-89
2022/04/22 10:24:14;;;;;;;26.05;15.57;;;;;;;12.20;68.92;98942.09;4426228;32;34284;-88
2022/04/22 10:26:42;;;;;;;23.38;16.40;;;;;;;12.72;68.02;98940.72;4444553;32;34479;-89
2022/04/22 10:29:10;;;;;;;22.40;16.00;;;;;;;12.26;67.80;98934.44;4451010;32;34531;-89
2022/04/22 10:31:39;;;;;;;23.80;15.77;;;;;;;12.77;67.03;98939.09;4440314;32;32492;-88
2022/04/22 10:34:07;;;;;;;23.98;16.45;;;;;;;12.38;67.78;98945.16;4453822;32;33872;-88
2022/04/22 10:36:35;;;;;;;21.10;15.48;;;;;;;12.31;67.78;98948.44;4414101;32;32932;-90
2022/04/22 10:39:02;;;;;;;21.12;15.98;;;;;;;12.48;66.82;98934.97;4427706;32;34950;-89
2022/04/22 10:41:33;;;;;;;22.25;15.85;;;;;;;12.41;66.72;98933.06;4438677;32;33830;-88
2022/04/22 10:49:36;;;;;;;23.67;15.70;;;;;;;12.26;67.77;98928.38;4442177;32;34496;-88
2022/04/22 10:52:13;;;;;;;27.02;16.98;;;;;;;12.30;67.76;98915.50;4452739;32;33884;-88
2022/04/22 10:55:04;;;;;;;24.92;15.77;;;;;;;12.66;66.56;98913.72;4437072;32;31624;-90
2022/04/22 10:57:35;;;;;;;26.60;16.52;;;;;;;12.64;67.16;98916.28;4431953;32;33699;-89
2022/04/22 11:00:11;;;;;;;24.20;16.08;;;;;;;12.63;67.37;98913.66;4459387;32;34460;-88
2022/04/22 11:02:43;;;;;;;22.13;15.38;;;;;;;12.88;65.94;98915.06;4455720;32;34395;-88
2022/04/22 11:05:20;;;;;;;22.67;16.05;;;;;;;12.41;67.21;98907.09;4443162;32;31882;-88
2022/04/22 11:07:50;;;;;;;20.30;15.82;;;;;;;12.57;66.63;98904.88;4454454;32;33536;-88
2022/04/22 11:10:18;;;;;;;24.77;15.90;;;;;;;12.61;67.02;98911.00;4454575;32;33783;-87
2022/04/22 11:12:57;;;;;;;21.12;14.07;;;;;;;12.17;67.87;98906.56;4444507;32;35113;-88
2022/04/22 11:15:46;;;;;;;20.92;15.60;;;;;;;12.45;67.71;98893.34;4448853;32;33905;-89
2022/04/22 11:18:14;;;;;;;23.42;15.52;;;;;;;12.79;66.18;98901.03;4463125;32;33519;-89
2022/04/22 11:21:02;;;;;;;21.27;14.00;;;;;;;12.69;66.38;98893.88;4427962;32;34243;-89
2022/04/22 11:23:38;;;;;;;22.05;15.50;;;;;;;12.79;65.74;98884.56;4453912;32;34233;-89
2022/04/22 11:26:07;;;;;;;20.65;14.43;;;;;;;12.65;65.89;98881.69;4426010;32;36691;-89
2022/04/22 11:28:37;;;;;;;21.02;14.73;;;;;;;12.79;65.24;98888.03;4441094;32;34653;-88
2022/04/22 11:31:07;;;;;;;20.35;14.45;;;;;;;12.85;65.06;98886.41;4448358;32;34285;-89
2022/04/22 11:33:45;;;;;;;18.40;12.77;;;;;;;13.08;64.23;98887.75;4414133;32;32154;-89
2022/04/22 11:36:13;;;;;;;20.33;14.40;;;;;;;12.92;63.62;98875.28;4442933;32;33389;-88
2022/04/22 11:38:46;;;;;;;16.75;13.30;;;;;;;12.87;62.71;98875.19;4426303;32;32378;-90
2022/04/22 11:41:13;;;;;;;16.98;13.15;;;;;;;13.04;62.11;98880.75;4426277;32;33873;-89
2022/04/22 11:43:46;;;;;;;18.42;13.48;;;;;;;13.29;61.42;98876.91;4428175;32;32716;-89
2022/04/22 11:46:17;;;;;;;19.17;13.27;;;;;;;13.55;60.30;98874.78;4443385;32;33437;-89
2022/04/22 11:48:53;;;;;;;20.67;13.52;;;;;;;13.51;60.57;98869.53;4444579;32;33538;-89
2022/04/22 11:51:21;;;;;;;17.87;12.85;;;;;;;13.74;59.28;98877.72;4444398;32;33696;-90
2022/04/22 11:53:51;;;;;;;15.82;11.93;;;;;;;13.56;58.88;98873.97;4440528;32;33651;-88
2022/04/22 11:56:23;;;;;;;18.25;12.55;;;;;;;13.67;57.60;98862.84;4462732;32;34565;-90
2022/04/22 11:58:53;;;;;;;17.52;13.18;;;;;;;13.83;57.83;98862.28;4438303;32;33759;-89
2022/04/22 12:06:59;;;;;;;18.87;12.45;;;;;;;14.12;55.27;98841.03;4449826;32;34122;-90
2022/04/22 12:09:28;;;;;;;18.05;12.88;;;;;;;14.28;54.80;98837.78;4439677;32;34205;-91
2022/04/22 12:11:57;;;;;;;18.42;12.48;;;;;;;14.73;54.30;98831.47;4426487;32;33881;-91
2022/04/22 12:14:27;;;;;;;16.05;11.68;;;;;;;14.43;53.46;98831.94;4427314;32;33728;-91
2022/04/22 12:16:58;;;;;;;17.62;11.48;;;;;;;14.77;52.52;98821.97;4431468;32;32481;-90
2022/04/22 12:19:27;;;;;;;18.20;10.82;;;;;;;14.71;52.15;98817.53;4463977;32;33476;-89
2022/04/22 12:21:55;;;;;;;16.40;9.25;;;;;;;14.81;51.18;98802.88;4447408;32;34166;-89
2022/04/22 12:24:23;;;;;;;14.63;9.60;;;;;;;14.80;50.15;98800.28;4443724;32;34330;-91
2022/04/22 12:26:51;;;;;;;15.48;9.82;;;;;;;14.95;49.03;98790.03;4440576;32;32229;-90
2022/04/22 12:29:23;;;;;;;12.80;10.15;;;;;;;14.64;49.45;98801.81;4455991;32;34436;-88
2022/04/22 12:31:51;;;;;;;14.30;10.38;;;;;;;14.70;48.17;98802.78;4435016;32;34677;-89
2022/04/22 12:34:30;;;;;;;16.62;11.15;;;;;;;14.72;47.67;98803.66;4429021;32;33530;-90
2022/04/22 12:37:00;;;;;;;15.48;10.52;;;;;;;14.89;47.00;98801.28;4463849;32;34086;-87
2022/04/22 12:39:43;;;;;;;14.45;9.60;;;;;;;14.81;48.58;98797.66;4453022;32;33360;-89
2022/04/22 12:42:16;;;;;;;13.93;10.70;;;;;;;14.97;47.06;98806.56;4426985;32;33268;-86
2022/04/22 12:53:46;;;;;;;13.02;8.32;;;;;;;14.40;44.97;98776.31;4441291;32;34386;-86
2022/04/22 12:56:14;;;;;;;12.45;8.63;;;;;;;14.33;44.93;98778.84;4439353;32;34223;-88
2022/04/22 12:58:53;;;;;;;11.77;8.82;;;;;;;14.57;44.82;98776.56;4447589;32;33944;-86
2022/04/22 13:01:25;;;;;;;11.38;9.00;;;;;;;14.55;44.69;98786.91;4441970;32;34338;-88
2022/04/22 13:03:53;;;;;;;12.55;8.88;;;;;;;14.74;44.75;98790.66;4441719;32;34242;-90
2022/04/22 13:06:43;;;;;;;13.10;8.77;;;;;;;14.85;45.13;98777.72;4441004;32;33635;-85
2022/04/22 13:09:12;;;;;;;13.60;9.35;;;;;;;15.09;43.26;98772.78;4440133;32;33800;-89
2022/04/22 13:11:41;;;;;;;13.90;8.73;;;;;;;14.70;44.26;98773.25;4447508;32;33076;-87
2022/04/22 13:14:09;;;;;;;12.18;8.43;;;;;;;14.62;44.66;98769.66;4441297;32;34903;-87
2022/04/22 13:16:37;;;;;;;9.93;7.47;;;;;;;15.02;44.15;98770.97;4428480;32;33269;-87
2022/04/22 13:19:14;;;;;;;13.43;7.35;;;;;;;14.73;43.82;98763.69;4455422;32;33318;-85
2022/04/22 13:21:41;;;;;;;11.10;7.80;;;;;;;15.02;44.11;98757.94;4441738;32;34683;-86
2022/04/22 13:24:09;;;;;;;11.25;7.75;;;;;;;14.95;43.65;98758.75;4443294;32;34118;-86
2022/04/22 13:26:38;;;;;;;14.00;9.65;;;;;;;14.87;43.66;98770.78;4464587;32;33416;-88
2022/04/22 13:29:06;;;;;;;11.73;7.60;;;;;;;14.99;43.13;98755.31;4440880;32;33803;-86
2022/04/22 13:31:35;;;;;;;10.88;7.05;;;;;;;15.16;43.15;98759.78;4428860;32;34251;-86
2022/04/22 13:34:04;;;;;;;11.27;7.25;;;;;;;14.97;42.92;98761.34;4441385;32;34286;-86
2022/04/22 13:36:34;;;;;;;10.43;7.15;;;;;;;14.73;42.74;98753.28;4430764;32;34383;-87
2022/04/22 13:39:03;;;;;;;10.35;6.85;;;;;;;14.44;43.72;98759.84;4428070;32;32704;-86
2022/04/22 13:41:31;;;;;;;11.45;7.45;;;;;;;14.74;43.06;98752.44;4425044;32;33972;-83
2022/04/22 13:43:59;;;;;;;11.12;7.45;;;;;;;14.65;44.47;98746.25;4466098;32;33739;-85
2022/04/22 13:54:30;;;;;;;11.32;7.25;;;;;;;14.86;42.94;98759.50;4442620;32;32910;-87
2022/04/22 13:56:58;;;;;;;11.55;7.30;;;;;;;14.74;42.71;98756.78;4451644;32;31748;-87
2022/04/22 13:59:26;;;;;;;11.25;7.37;;;;;;;14.87;43.00;98761.28;4429736;32;34593;-86
2022/04/22 14:01:53;;;;;;;12.05;7.90;;;;;;;14.77;42.97;98748.09;4413990;32;32342;-86
2022/04/22 14:04:22;;;;;;;12.80;7.70;;;;;;;15.13;42.71;98743.25;4416082;32;33205;-85
2022/04/22 14:06:50;;;;;;;13.20;8.13;;;;;;;14.93;43.29;98739.56;4444127;32;34038;-85
2022/04/22 14:09:18;;;;;;;11.23;7.70;;;;;;;14.55;44.20;98726.97;4443288;32;33902;-87
2022/04/22 14:11:46;;;;;;;11.60;7.82;;;;;;;14.54;44.08;98735.63;4439433;32;33436;-86
2022/04/22 14:14:13;;;;;;;13.20;7.07;;;;;;;14.60;43.65;98735.75;4457346;32;34584;-85
2022/04/22 14:16:41;;;;;;;12.00;8.40;;;;;;;14.59;44.10;98727.94;4425708;32;32964;-83
2022/04/22 14:19:09;;;;;;;12.80;8.07;;;;;;;14.77;43.67;98722.03;4456683;32;34708;-85
2022/04/22 14:21:37;;;;;;;12.32;8.23;;;;;;;14.99;43.22;98723.13;4439966;32;33596;-86
2022/04/22 14:24:05;;;;;;;12.43;8.38;;;;;;;15.17;42.92;98732.88;4441196;32;33487;-86
2022/04/22 14:26:32;;;;;;;12.65;8.60;;;;;;;15.23;43.28;98728.56;4446213;32;33553;-87
2022/04/22 14:29:24;;;;;;;14.50;8.40;;;;;;;14.98;43.21;98735.28;4456720;32;33838;-87
2022/04/22 14:31:53;;;;;;;11.05;7.62;;;;;;;14.95;43.10;98727.44;4463215;32;34225;-87
2022/04/22 14:34:20;;;;;;;13.15;8.38;;;;;;;14.85;43.45;98725.59;4416152;32;33323;-87
2022/04/22 14:36:48;;;;;;;12.65;8.23;;;;;;;14.99;43.06;98731.84;4440849;32;33905;-87
2022/04/22 14:39:23;;;;;;;16.95;8.32;;;;;;;15.22;43.24;98732.06;4426669;32;32279;-87
2022/04/22 14:41:53;;;;;;;13.80;8.70;;;;;;;14.94;43.16;98720.47;4434646;32;33972;-88
2022/04/22 14:44:21;;;;;;;13.93;9.00;;;;;;;14.97;42.99;98724.84;4446604;32;34173;-89
2022/04/22 14:46:49;;;;;;;14.23;8.60;;;;;;;14.85;43.16;98715.16;4417728;32;32532;-89
2022/04/22 14:49:20;;;;;;;10.88;7.82;;;;;;;14.77;43.13;98722.03;4453930;32;32159;-88
2022/04/22 14:51:58;;;;;;;10.65;8.07;;;;;;;14.86;42.54;98729.97;4433656;32;33719;-88
2022/04/22 14:54:31;;;;;;;12.02;8.13;;;;;;;14.93;42.21;98723.94;4415978;32;35357;-88
2022/04/22 14:56:59;;;;;;;14.70;8.52;;;;;;;14.85;42.66;98720.37;4444155;32;34463;-88
2022/04/22 14:59:26;;;;;;;14.77;8.95;;;;;;;14.78;42.32;98729.00;4419972;32;33124;-88
2022/04/22 15:01:56;;;;;;;17.65;8.25;;;;;;;14.62;42.93;98715.81;4450910;32;34508;-86
2022/04/22 15:04:24;;;;;;;12.55;8.52;;;;;;;14.54;43.25;98718.28;4445398;32;34776;-86
2022/04/22 15:06:52;;;;;;;14.90;9.15;;;;;;;14.36;43.12;98705.03;4438817;32;33546;-89
2022/04/22 15:09:23;;;;;;;14.63;9.82;;;;;;;14.57;43.07;98701.84;4441639;32;33598;-86
2022/04/22 15:11:51;;;;;;;12.60;8.30;;;;;;;14.24;43.41;98684.94;4454726;32;33462;-88
2022/04/22 15:14:18;;;;;;;11.95;8.43;;;;;;;14.55;42.88;98680.06;4442414;32;33617;-87
2022/04/22 15:16:46;;;;;;;10.48;7.05;;;;;;;14.48;42.69;98668.69;4441813;32;34518;-88
2022/04/22 15:24:47;;;;;;;12.10;8.63;;;;;;;14.13;43.58;98660.47;4427809;32;33232;-87
2022/04/22 15:27:15;;;;;;;14.98;9.07;;;;;;;14.51;43.08;98671.34;4433707;32;32016;-85
2022/04/22 15:29:43;;;;;;;13.88;9.27;;;;;;;14.70;42.69;98667.25;4411365;32;32468;-86
2022/04/22 15:32:11;;;;;;;33.47;19.77;;;;;;;14.46;42.73;98670.41;4425950;32;32758;-86
2022/04/22 15:34:39;;;;;;;24.70;14.63;;;;;;;14.51;42.72;98662.66;4441650;32;34094;-87
2022/04/22 15:37:06;;;;;;;18.52;10.00;;;;;;;14.43;42.77;98666.91;4433408;32;33776;-86
2022/04/22 15:39:34;;;;;;;17.98;10.20;;;;;;;14.52;42.90;98659.19;4431875;32;33971;-86
2022/04/22 15:42:03;;;;;;;18.52;12.25;;;;;;;14.42;43.17;98662.56;4429245;32;31582;-86
2022/04/22 15:44:31;;;;;;;14.65;10.02;;;;;;;14.23;43.59;98661.47;4428347;32;34872;-86
2022/04/22 15:47:03;;;;;;;12.50;8.63;;;;;;;14.53;42.86;98655.72;4437444;32;33831;-86
2022/04/22 15:49:31;;;;;;;14.13;10.05;;;;;;;14.31;43.38;98649.41;4427220;32;33310;-86
2022/04/22 15:51:59;;;;;;;13.02;8.65;;;;;;;14.31;43.57;98655.50;4430190;32;32245;-86
2022/04/22 15:54:27;;;;;;;15.85;9.63;;;;;;;14.02;45.53;98656.88;4437212;32;32482;-85
2022/04/22 15:56:55;;;;;;;17.55;9.60;;;;;;;13.85;52.50;98660.16;4428439;32;32148;-85
2022/04/22 15:59:23;;;;;;;15.23;10.80;;;;;;;13.81;53.25;98658.34;4443930;32;33749;-85
2022/04/22 16:01:51;;;;;;;15.38;9.98;;;;;;;13.85;53.06;98654.03;4437362;32;32292;-84
2022/04/22 16:04:20;;;;;;;15.65;10.82;;;;;;;13.60;53.18;98665.84;4464989;32;33756;-87
2022/04/22 16:06:48;;;;;;;16.48;11.05;;;;;;;13.78;52.61;98673.91;4435882;32;196039;-87
2022/04/22 16:09:16;;;;;;;13.18;9.63;;;;;;;13.54;53.51;98664.91;4427406;32;33199;-86
2022/04/22 16:17:17;;;;;;;17.92;9.75;;;;;;;13.22;55.30;98653.13;4445134;32;34304;-85
2022/04/22 16:19:44;;;;;;;16.48;10.32;;;;;;;13.08;55.01;98656.38;4429523;32;35092;-87
2022/04/22 16:22:13;;;;;;;14.55;9.95;;;;;;;12.89;55.19;98651.72;4440763;32;32412;-85
2022/04/22 16:24:40;;;;;;;13.20;10.18;;;;;;;13.30;55.22;98664.53;4455020;32;34289;-87
2022/04/22 16:27:09;;;;;;;14.80;10.00;;;;;;;13.09;56.17;98665.91;4442891;32;31623;-86
2022/04/22 16:29:36;;;;;;;13.77;9.52;;;;;;;13.22;56.21;98666.13;4442850;32;34659;-87
2022/04/22 16:32:05;;;;;;;14.50;8.95;;;;;;;13.11;55.34;98664.19;4438666;32;34570;-86
2022/04/22 16:34:32;;;;;;;14.65;8.82;;;;;;;13.03;54.17;98662.34;4443130;32;34093;-86
2022/04/22 16:37:01;;;;;;;14.13;9.00;;;;;;;13.23;53.69;98652.25;4455492;32;34521;-87
2022/04/22 16:39:29;;;;;;;13.38;8.57;;;;;;;13.15;54.57;98634.81;4426849;32;30683;-86
2022/04/22 16:41:59;;;;;;;12.65;9.25;;;;;;;13.08;53.19;98653.78;4447197;32;33843;-87
2022/04/22 16:44:27;;;;;;;16.65;12.15;;;;;;;13.17;53.35;98643.53;4438464;32;33630;-86
2022/04/22 16:46:55;;;;;;;15.73;11.80;;;;;;;13.10;55.61;98636.47;4438295;32;33459;-86
2022/04/22 16:49:24;;;;;;;17.50;10.40;;;;;;;12.81;58.25;98628.19;4453867;32;33952;-86
2022/04/22 16:51:53;;;;;;;18.37;11.32;;;;;;;12.60;61.19;98639.09;4435930;32;33578;-85
2022/04/22 16:54:21;;;;;;;17.35;12.85;;;;;;;12.31;61.67;98644.63;4440491;32;33659;-84
2022/04/22 16:56:49;;;;;;;16.62;12.18;;;;;;;12.42;61.38;98646.53;4447580;32;32129;-85
2022/04/22 16:59:16;;;;;;;18.27;12.13;;;;;;;12.09;62.75;98642.44;4445632;32;34226;-85
2022/04/22 17:01:48;;;;;;;18.83;14.60;;;;;;;12.26;62.52;98642.78;4447851;32;32930;-84
2022/04/22 17:04:16;;;;;;;14.98;10.77;;;;;;;11.85;63.18;98635.00;4449283;32;34471;-86
2022/04/22 17:06:47;;;;;;;15.80;11.05;;;;;;;11.81;63.07;98644.44;4427627;32;32900;-85
2022/04/22 17:09:15;;;;;;;17.08;11.50;;;;;;;11.58;63.06;98641.34;4456384;32;34469;-85
2022/04/22 17:11:44;;;;;;;17.55;11.30;;;;;;;11.59;62.81;98643.97;4449795;32;33686;-86
2022/04/22 17:22:41;;;;;;;15.73;11.45;;;;;;;11.88;65.95;98672.28;4439141;32;33831;-84
2022/04/22 17:25:10;;;;;;;17.33;12.20;;;;;;;11.65;65.80;98663.09;4434690;32;33666;-83
2022/04/22 17:27:39;;;;;;;18.10;12.20;;;;;;;11.35;68.00;98654.66;4447150;32;33736;-83
2022/04/22 17:30:10;;;;;;;19.52;12.80;;;;;;;11.26;68.63;98669.13;4439820;32;32057;-82
2022/04/22 17:32:39;;;;;;;16.12;11.82;;;;;;;11.17;68.33;98664.59;4423400;32;33080;-84
2022/04/22 17:35:08;;;;;;;16.40;11.60;;;;;;;11.18;68.33;98662.06;4438022;32;34041;-85
2022/04/22 17:37:36;;;;;;;17.48;11.27;;;;;;;10.87;68.30;98670.75;4437055;32;33382;-85